Time;durP1;ratioP1;P1;durP2;ratioP2;P2;SDS_P1;SDS_P2;PMS_P1;PMS_P2;Temp;Humidity;BMP_temperature;BMP_pressure;BME280_temperature;BME280_humidity;BME280_pressure;Samples;Min_cycle;Max_cycle;Signal;HPM_P1;HPM_P2
2022/09/01 00:02:07;;;;;;;32.33;7.13;;;;;;;22.00;100.00;98209.44;4966895;28;20037;-53
2022/09/01 00:04:37;;;;;;;31.23;7.00;;;;;;;22.08;100.00;98203.47;4969024;28;20229;-53
2022/09/01 00:07:07;;;;;;;37.08;7.03;;;;;;;21.82;100.00;98203.88;4969892;28;20046;-53
2022/09/01 00:09:32;;;;;;;33.45;7.00;;;;;;;22.13;100.00;98207.44;4986026;28;20109;-53
2022/09/01 00:11:58;;;;;;;35.78;7.07;;;;;;;21.70;100.00;98207.53;4969042;28;20392;-53
2022/09/01 00:14:28;;;;;;;28.67;6.65;;;;;;;21.93;100.00;98205.63;4966748;28;20030;-52
2022/09/01 00:16:53;;;;;;;35.42;7.07;;;;;;;21.96;100.00;98197.38;4968759;28;20034;-52
2022/09/01 00:19:20;;;;;;;26.85;7.32;;;;;;;22.07;100.00;98202.63;4970412;28;20034;-53
2022/09/01 00:21:46;;;;;;;29.38;6.70;;;;;;;21.71;100.00;98202.13;4968152;28;20046;-54
2022/09/01 00:24:14;;;;;;;32.80;7.13;;;;;;;21.87;100.00;98204.34;4969862;28;20054;-53
2022/09/01 00:26:40;;;;;;;36.00;7.80;;;;;;;22.00;100.00;98197.97;4968946;28;20174;-53
2022/09/01 00:29:06;;;;;;;45.10;8.10;;;;;;;22.02;100.00;98202.19;4971146;28;20449;-52
2022/09/01 00:31:32;;;;;;;36.83;7.18;;;;;;;21.93;100.00;98192.34;4970822;28;20122;-53
2022/09/01 00:33:58;;;;;;;31.90;6.45;;;;;;;22.32;100.00;98192.59;4969927;28;20031;-53
2022/09/01 00:36:23;;;;;;;25.92;6.45;;;;;;;22.70;100.00;98201.72;4969543;28;20494;-53
2022/09/01 00:38:51;;;;;;;32.35;6.95;;;;;;;22.10;100.00;98197.06;4969956;28;20065;-53
2022/09/01 00:41:18;;;;;;;38.90;7.90;;;;;;;21.92;100.00;98198.63;4968961;28;20049;-53
2022/09/01 00:43:44;;;;;;;32.00;6.68;;;;;;;22.04;100.00;98196.75;4970603;28;20121;-52
2022/09/01 00:46:19;;;;;;;38.17;7.97;;;;;;;21.46;100.00;98200.66;4964914;28;20070;-54
2022/09/01 00:48:50;;;;;;;35.50;7.82;;;;;;;22.30;100.00;98198.03;4970428;28;20027;-53
2022/09/01 00:51:15;;;;;;;39.65;7.75;;;;;;;22.37;100.00;98197.50;4968489;28;20756;-53
2022/09/01 00:53:42;;;;;;;29.77;6.82;;;;;;;21.98;100.00;98199.91;4970649;28;20026;-53
2022/09/01 00:56:08;;;;;;;32.40;7.63;;;;;;;21.77;100.00;98197.25;4969010;28;20137;-55
2022/09/01 00:58:36;;;;;;;34.20;7.30;;;;;;;22.21;100.00;98201.44;4969716;28;20034;-53
2022/09/01 01:01:02;;;;;;;37.15;7.65;;;;;;;22.32;100.00;98204.06;4969309;28;20046;-53
2022/09/01 01:03:29;;;;;;;31.70;7.05;;;;;;;22.29;100.00;98200.81;4969140;28;20580;-54
2022/09/01 01:05:56;;;;;;;27.00;6.85;;;;;;;22.12;100.00;98189.78;4967980;28;20061;-53
2022/09/01 01:08:32;;;;;;;26.48;6.60;;;;;;;22.00;100.00;98198.81;4968026;28;20034;-52
2022/09/01 01:11:03;;;;;;;34.08;7.43;;;;;;;21.84;100.00;98203.75;4968448;28;20035;-53
2022/09/01 01:13:30;;;;;;;36.55;7.20;;;;;;;22.25;100.00;98196.72;4970169;28;20367;-52
2022/09/01 01:15:58;;;;;;;31.23;7.03;;;;;;;22.01;100.00;98200.50;4967922;28;20497;-51
2022/09/01 01:18:24;;;;;;;33.95;7.47;;;;;;;21.49;100.00;98200.41;4968640;28;20097;-51
2022/09/01 01:24:05;;;;;;;28.48;7.07;;;;;;;21.71;100.00;98199.47;4970504;28;20070;-52
2022/09/01 01:26:31;;;;;;;37.15;7.30;;;;;;;21.21;100.00;98207.13;4967251;28;20043;-52
2022/09/01 01:28:57;;;;;;;32.17;7.07;;;;;;;21.67;100.00;98203.34;4969610;28;20996;-52
2022/09/01 01:31:22;;;;;;;32.65;7.15;;;;;;;22.13;100.00;98199.47;4982049;28;20034;-53
2022/09/01 01:33:51;;;;;;;33.10;7.55;;;;;;;21.34;100.00;98202.47;4968117;28;20724;-52
2022/09/01 01:36:20;;;;;;;30.42;7.03;;;;;;;21.91;100.00;98187.16;4967321;28;20228;-53
2022/09/01 01:38:47;;;;;;;38.90;8.07;;;;;;;21.90;100.00;98193.44;4969649;28;20038;-52
2022/09/01 01:41:16;;;;;;;30.17;7.38;;;;;;;21.65;100.00;98194.69;4966689;28;20061;-52
2022/09/01 01:43:42;;;;;;;37.47;7.78;;;;;;;21.84;100.00;98198.44;4968922;28;20045;-52
2022/09/01 01:46:10;;;;;;;35.08;7.72;;;;;;;21.85;100.00;98192.13;4967339;28;20039;-52
2022/09/01 01:48:40;;;;;;;36.25;7.30;;;;;;;21.62;100.00;98194.91;4974845;28;20129;-53
2022/09/01 01:51:06;;;;;;;45.97;8.40;;;;;;;21.65;100.00;98185.84;4967140;28;20042;-55
2022/09/01 01:53:32;;;;;;;31.45;7.13;;;;;;;21.49;100.00;98196.91;4967696;28;20034;-52
2022/09/01 01:55:59;;;;;;;30.83;7.28;;;;;;;21.72;100.00;98195.81;4966152;28;20783;-53
2022/09/01 01:58:27;;;;;;;31.17;7.50;;;;;;;20.86;100.00;98197.53;4968716;28;20019;-52
2022/09/01 02:00:55;;;;;;;42.10;8.70;;;;;;;20.78;100.00;98192.81;4967317;28;20070;-52
2022/09/01 02:03:29;;;;;;;30.42;7.07;;;;;;;21.06;100.00;98189.78;4968854;28;20109;-52
2022/09/01 02:05:55;;;;;;;35.45;7.53;;;;;;;21.35;100.00;98185.56;4964730;28;20050;-52
2022/09/01 02:08:24;;;;;;;28.38;7.28;;;;;;;21.18;100.00;98186.13;4969654;28;20035;-52
2022/09/01 02:10:52;;;;;;;35.85;7.45;;;;;;;21.66;100.00;98180.41;4966562;28;20113;-53
2022/09/01 02:13:24;;;;;;;33.42;7.13;;;;;;;21.44;100.00;98185.81;4967433;28;20065;-52
2022/09/01 02:15:52;;;;;;;39.27;7.97;;;;;;;20.95;100.00;98186.19;4968105;28;20030;-52
2022/09/01 02:18:26;;;;;;;29.02;6.82;;;;;;;21.02;100.00;98191.81;4967626;28;20023;-52
2022/09/01 02:20:52;;;;;;;34.55;7.53;;;;;;;20.60;100.00;98187.22;4968469;28;20039;-52
2022/09/01 02:23:22;;;;;;;30.05;7.60;;;;;;;20.80;100.00;98182.09;4966976;28;20055;-53
2022/09/01 02:25:50;;;;;;;37.08;7.90;;;;;;;20.89;100.00;98186.66;4967077;28;20038;-52
2022/09/01 02:28:18;;;;;;;31.92;7.57;;;;;;;21.25;100.00;98186.47;4970278;28;20027;-52
2022/09/01 02:30:48;;;;;;;33.63;7.45;;;;;;;21.18;100.00;98186.13;4968810;28;20142;-52
2022/09/01 02:33:18;;;;;;;41.15;8.43;;;;;;;21.05;100.00;98177.50;4966292;28;20030;-53
2022/09/01 02:35:56;;;;;;;32.90;7.57;;;;;;;20.82;100.00;98184.66;4966362;28;20062;-52
2022/09/01 02:38:24;;;;;;;34.08;7.80;;;;;;;20.81;100.00;98178.50;4968280;28;20034;-52
2022/09/01 02:40:52;;;;;;;33.85;7.95;;;;;;;21.08;100.00;98174.56;4965771;28;20145;-52
2022/09/01 02:43:19;;;;;;;44.90;8.80;;;;;;;20.83;100.00;98171.28;4967112;28;20031;-52
2022/09/01 02:45:56;;;;;;;34.60;7.68;;;;;;;20.88;100.00;98168.22;4965400;28;20522;-52
2022/09/01 02:48:27;;;;;;;38.95;8.63;;;;;;;20.92;100.00;98169.69;4968361;28;20439;-52
2022/09/01 02:50:56;;;;;;;36.97;7.50;;;;;;;20.66;100.00;98169.09;4968394;28;20098;-52
2022/09/01 02:53:21;;;;;;;45.15;9.00;;;;;;;20.59;100.00;98169.56;4967746;28;20018;-52
2022/09/01 02:55:47;;;;;;;31.63;7.75;;;;;;;20.67;100.00;98161.03;4966814;28;20035;-52
2022/09/01 02:58:18;;;;;;;36.88;8.77;;;;;;;20.43;100.00;98163.81;4968012;28;20100;-53
2022/09/01 03:00:45;;;;;;;31.52;7.72;;;;;;;20.63;100.00;98169.38;4967432;28;20120;-52
2022/09/01 03:03:16;;;;;;;28.55;6.55;;;;;;;20.54;100.00;98166.44;4966844;28;20102;-52
2022/09/01 03:05:42;;;;;;;33.80;7.65;;;;;;;20.92;100.00;98167.88;4967569;28;20045;-52
2022/09/01 03:08:11;;;;;;;29.17;7.82;;;;;;;20.77;100.00;98162.00;4967690;28;20053;-52
2022/09/01 03:10:40;;;;;;;42.97;8.95;;;;;;;20.56;100.00;98164.50;4968012;28;20402;-53
2022/09/01 03:13:08;;;;;;;36.15;7.68;;;;;;;20.36;100.00;98162.59;4969387;28;20034;-54
2022/09/01 03:15:35;;;;;;;50.78;9.02;;;;;;;20.44;100.00;98162.84;4970532;28;20108;-52
2022/09/01 03:18:01;;;;;;;36.10;7.88;;;;;;;20.23;100.00;98152.97;4973106;28;20121;-52
2022/09/01 03:20:32;;;;;;;38.42;8.93;;;;;;;20.38;100.00;98160.66;4970245;28;20031;-53
2022/09/01 03:22:58;;;;;;;33.42;8.25;;;;;;;20.41;100.00;98166.56;4972333;28;20034;-52
2022/09/01 03:25:24;;;;;;;28.45;7.97;;;;;;;20.40;100.00;98158.75;4968728;28;20039;-53
2022/09/01 03:27:51;;;;;;;30.85;8.65;;;;;;;20.17;100.00;98164.03;4970990;28;20113;-53
2022/09/01 03:30:17;;;;;;;36.00;8.20;;;;;;;20.18;100.00;98157.78;4985823;28;20853;-53
2022/09/01 03:32:44;;;;;;;34.30;8.90;;;;;;;20.00;100.00;98167.16;4984266;28;20042;-52
2022/09/01 03:35:10;;;;;;;37.75;9.13;;;;;;;19.56;100.00;98174.00;4968216;28;20079;-52
2022/09/01 03:37:38;;;;;;;40.00;8.65;;;;;;;19.98;100.00;98169.09;4969660;28;20842;-52
2022/09/01 03:40:05;;;;;;;35.53;8.85;;;;;;;20.20;100.00;98163.81;4971342;28;20064;-53
2022/09/01 03:42:31;;;;;;;37.00;8.60;;;;;;;20.18;100.00;98165.75;4970264;28;20023;-53
2022/09/01 03:44:57;;;;;;;38.65;8.88;;;;;;;20.00;100.00;98172.47;4986934;28;20038;-52
2022/09/01 03:47:23;;;;;;;37.08;8.23;;;;;;;20.00;100.00;98168.00;4966513;28;20392;-52
2022/09/01 03:49:49;;;;;;;48.78;9.23;;;;;;;19.89;100.00;98165.34;4972294;28;20584;-53
2022/09/01 03:52:16;;;;;;;37.72;8.40;;;;;;;19.68;100.00;98162.47;4967884;28;20097;-53
2022/09/01 03:54:44;;;;;;;42.83;8.98;;;;;;;19.78;100.00;98158.22;4970882;28;20069;-53
2022/09/01 03:57:09;;;;;;;34.13;7.57;;;;;;;20.01;100.00;98169.66;4970435;28;20041;-52
2022/09/01 03:59:37;;;;;;;34.42;7.93;;;;;;;19.80;100.00;98156.28;4984388;28;20023;-53
2022/09/01 04:02:03;;;;;;;37.35;8.05;;;;;;;19.82;100.00;98164.94;4968093;28;20720;-52
2022/09/01 04:04:31;;;;;;;36.25;7.82;;;;;;;19.76;100.00;98160.13;4969770;28;20027;-53
2022/09/01 04:07:01;;;;;;;42.97;8.75;;;;;;;19.66;100.00;98153.81;4970042;28;20469;-52
2022/09/01 04:09:26;;;;;;;28.77;7.60;;;;;;;19.37;100.00;98156.88;4986077;28;20034;-51
2022/09/01 04:11:52;;;;;;;41.50;9.07;;;;;;;19.49;100.00;98162.19;4968118;28;20097;-52
2022/09/01 04:14:18;;;;;;;36.20;8.32;;;;;;;19.50;100.00;98158.56;4969820;28;20034;-53
2022/09/01 04:19:35;;;;;;;35.15;8.23;;;;;;;19.31;100.00;98164.41;4968770;28;20547;-52
2022/09/01 04:22:02;;;;;;;44.92;9.32;;;;;;;19.40;100.00;98156.63;4966293;28;20042;-52
2022/09/01 04:24:30;;;;;;;29.95;7.63;;;;;;;19.23;100.00;98157.88;4985088;28;20475;-52
2022/09/01 04:27:00;;;;;;;38.55;8.52;;;;;;;19.33;100.00;98162.47;4969309;28;20039;-52
2022/09/01 04:29:27;;;;;;;34.78;8.20;;;;;;;19.56;100.00;98156.31;4969105;28;20041;-52
2022/09/01 04:32:00;;;;;;;38.10;9.05;;;;;;;19.62;100.00;98152.38;4984898;28;20035;-54
2022/09/01 04:34:27;;;;;;;35.22;8.35;;;;;;;18.89;100.00;98164.78;4983768;28;20066;-51
2022/09/01 04:36:53;;;;;;;37.60;7.95;;;;;;;19.19;100.00;98161.72;4971037;28;20039;-52
2022/09/01 04:39:19;;;;;;;35.17;8.50;;;;;;;19.62;100.00;98165.59;4970234;28;20034;-52
2022/09/01 04:41:45;;;;;;;36.30;8.30;;;;;;;19.85;100.00;98158.59;4983684;28;20097;-51
2022/09/01 04:44:11;;;;;;;43.75;9.32;;;;;;;19.56;100.00;98164.25;4970473;28;20543;-53
2022/09/01 04:46:41;;;;;;;33.72;8.07;;;;;;;19.60;100.00;98167.53;4968170;28;20062;-52
2022/09/01 04:49:10;;;;;;;34.08;8.38;;;;;;;19.86;100.00;98170.03;4970568;28;20034;-53
2022/09/01 04:51:41;;;;;;;41.33;8.68;;;;;;;19.00;100.00;98171.94;4968393;28;20501;-52
2022/09/01 04:54:10;;;;;;;35.45;8.00;;;;;;;19.83;100.00;98177.25;4984155;28;20077;-53
2022/09/01 04:56:37;;;;;;;39.92;8.75;;;;;;;19.45;100.00;98174.81;4972107;28;20121;-51
2022/09/01 04:59:05;;;;;;;30.55;7.43;;;;;;;19.81;100.00;98173.88;4970866;28;20022;-52
2022/09/01 05:01:41;;;;;;;44.80;9.05;;;;;;;20.01;100.00;98179.44;4970147;28;20062;-52
2022/09/01 05:04:08;;;;;;;39.75;8.73;;;;;;;19.73;100.00;98173.59;4970290;28;20093;-52
2022/09/01 05:06:38;;;;;;;50.70;9.52;;;;;;;19.32;100.00;98177.50;4968570;28;20042;-51
2022/09/01 05:09:04;;;;;;;37.10;8.10;;;;;;;18.94;100.00;98183.81;4967123;28;20030;-51
2022/09/01 05:11:31;;;;;;;44.17;9.30;;;;;;;20.08;100.00;98175.34;4967132;28;20515;-51
2022/09/01 05:13:57;;;;;;;31.55;7.55;;;;;;;20.34;100.00;98169.81;4967964;28;20031;-56
2022/09/01 05:16:26;;;;;;;26.77;7.00;;;;;;;20.15;100.00;98173.91;4985461;28;20034;-52
2022/09/01 05:18:54;;;;;;;32.03;7.55;;;;;;;20.03;100.00;98178.38;4968693;28;20496;-52
2022/09/01 05:21:27;;;;;;;37.95;7.75;;;;;;;20.36;100.00;98179.31;4967859;28;20042;-53
2022/09/01 05:23:53;;;;;;;33.08;6.82;;;;;;;20.85;100.00;98173.81;4967486;28;20087;-52
2022/09/01 05:26:22;;;;;;;37.25;7.38;;;;;;;21.21;100.00;98175.28;4968612;28;20334;-52
2022/09/01 05:28:54;;;;;;;31.33;6.10;;;;;;;22.97;100.00;98177.13;4968708;28;20288;-52
2022/09/01 05:31:21;;;;;;;32.93;6.43;;;;;;;23.52;100.00;98176.66;4967003;28;20035;-52
2022/09/01 05:33:49;;;;;;;36.78;6.40;;;;;;;24.54;100.00;98178.75;4972961;28;20316;-53
2022/09/01 05:36:18;;;;;;;28.08;5.72;;;;;;;24.54;100.00;98165.41;4965316;28;20652;-53
2022/09/01 05:38:46;;;;;;;39.15;6.90;;;;;;;24.53;100.00;98171.72;4965021;28;20527;-52
2022/09/01 05:41:16;;;;;;;35.28;6.60;;;;;;;25.43;100.00;98169.22;4966113;28;20031;-52
2022/09/01 05:43:47;;;;;;;35.58;6.45;;;;;;;23.95;100.00;98177.19;4967971;28;20035;-53
2022/09/01 05:46:16;;;;;;;33.88;6.18;;;;;;;25.15;100.00;98171.09;4966383;28;20561;-53
2022/09/01 05:48:42;;;;;;;37.95;7.05;;;;;;;23.79;100.00;98181.28;4965898;28;20058;-54
2022/09/01 05:51:10;;;;;;;35.92;6.43;;;;;;;24.70;99.00;98180.75;4969326;28;20773;-52
2022/09/01 05:53:36;;;;;;;26.30;5.60;;;;;;;24.68;100.00;98176.56;4967290;28;20023;-52
2022/09/01 05:56:06;;;;;;;34.10;6.15;;;;;;;24.08;100.00;98184.88;4968246;28;20042;-54
2022/09/01 05:58:33;;;;;;;25.13;5.35;;;;;;;24.28;100.00;98178.53;4975232;28;20045;-52
2022/09/01 06:01:00;;;;;;;38.47;6.95;;;;;;;24.61;100.00;98184.31;4966859;28;20047;-52
2022/09/01 06:03:27;;;;;;;23.88;5.53;;;;;;;23.58;100.00;98185.91;4968343;28;20588;-52
2022/09/01 06:05:54;;;;;;;25.33;5.45;;;;;;;22.18;100.00;98188.41;4967466;28;20035;-52
2022/09/01 06:08:23;;;;;;;28.63;6.32;;;;;;;22.82;100.00;98194.47;4967896;28;20126;-52
2022/09/01 06:10:50;;;;;;;32.63;6.20;;;;;;;22.17;100.00;98191.22;4965019;28;20035;-52
2022/09/01 06:13:20;;;;;;;32.08;6.10;;;;;;;22.02;100.00;98183.59;4966597;28;20113;-52
2022/09/01 06:15:52;;;;;;;27.85;6.05;;;;;;;21.70;100.00;98187.13;4966712;28;20458;-53
2022/09/01 06:18:17;;;;;;;28.05;5.72;;;;;;;23.08;100.00;98184.19;4965627;28;20090;-54
2022/09/01 06:20:45;;;;;;;32.85;5.85;;;;;;;22.94;100.00;98187.19;4966951;28;20038;-53
2022/09/01 06:23:16;;;;;;;31.30;5.78;;;;;;;23.87;100.00;98191.22;4966833;28;20122;-54
2022/09/01 06:25:45;;;;;;;27.02;5.25;;;;;;;24.93;99.97;98188.38;4967919;28;20093;-54
2022/09/01 06:28:14;;;;;;;32.88;6.18;;;;;;;26.17;88.85;98177.81;4967170;28;20027;-52
2022/09/01 06:30:41;;;;;;;27.88;5.63;;;;;;;26.48;84.87;98188.03;4967119;28;20556;-55
2022/09/01 06:33:09;;;;;;;28.60;5.57;;;;;;;25.47;87.46;98186.59;4965688;28;20027;-53
2022/09/01 06:35:40;;;;;;;30.98;5.55;;;;;;;27.39;78.89;98184.69;4972308;28;20042;-55
2022/09/01 06:38:05;;;;;;;29.97;5.33;;;;;;;26.66;83.27;98188.81;4968211;28;20088;-53
2022/09/01 06:40:32;;;;;;;25.27;4.93;;;;;;;26.71;77.87;98188.34;4964450;28;20038;-53
2022/09/01 06:43:01;;;;;;;26.23;5.28;;;;;;;27.19;74.87;98199.38;4965471;28;20314;-52
2022/09/01 06:45:26;;;;;;;37.22;6.07;;;;;;;27.94;69.88;98198.47;4969936;28;20037;-53
2022/09/01 06:47:52;;;;;;;25.95;4.97;;;;;;;28.69;68.22;98197.31;4970364;28;20038;-55
2022/09/01 06:50:23;;;;;;;22.08;4.78;;;;;;;30.13;60.15;98199.44;4972553;28;20038;-53
2022/09/01 06:53:00;;;;;;;25.83;5.38;;;;;;;30.03;59.92;98196.16;4971302;28;20084;-52
2022/09/01 06:55:30;;;;;;;22.35;4.70;;;;;;;30.44;58.03;98192.25;4973346;28;20048;-52
2022/09/01 06:57:57;;;;;;;26.90;4.85;;;;;;;32.44;52.08;98206.00;4971289;28;20109;-54
2022/09/01 07:00:25;;;;;;;20.05;4.65;;;;;;;31.96;52.84;98196.88;4972233;28;20763;-52
2022/09/01 07:02:55;;;;;;;16.00;4.00;;;;;;;32.91;46.56;98213.53;4969976;28;20137;-55
2022/09/01 07:05:22;;;;;;;19.67;4.35;;;;;;;35.15;42.54;98212.13;4975707;28;20138;-53
2022/09/01 07:07:50;;;;;;;19.75;4.45;;;;;;;31.43;45.56;98219.63;4973288;28;20102;-54
2022/09/01 07:10:21;;;;;;;19.15;4.32;;;;;;;31.09;48.38;98212.19;4970434;28;20468;-54
2022/09/01 07:12:48;;;;;;;19.38;4.55;;;;;;;29.65;48.13;98214.94;4971000;28;20027;-54
2022/09/01 07:15:14;;;;;;;18.90;4.40;;;;;;;34.22;43.84;98215.91;4973532;28;20029;-53
2022/09/01 07:17:41;;;;;;;18.95;4.47;;;;;;;33.60;42.38;98218.75;4974334;28;20037;-53
2022/09/01 07:20:08;;;;;;;19.95;4.18;;;;;;;32.30;45.16;98227.69;4973261;28;20105;-54
2022/09/01 07:22:33;;;;;;;18.63;3.80;;;;;;;32.28;43.60;98222.50;4973996;28;20037;-53
2022/09/01 07:24:58;;;;;;;12.85;3.72;;;;;;;31.46;47.44;98216.53;4972533;28;20054;-55
2022/09/01 07:27:26;;;;;;;18.13;4.10;;;;;;;30.83;48.44;98215.34;4972469;28;20161;-52
2022/09/01 07:29:53;;;;;;;20.02;4.57;;;;;;;29.78;50.59;98212.53;4972295;28;20031;-53
2022/09/01 07:32:19;;;;;;;18.80;4.20;;;;;;;29.60;52.71;98214.66;4972096;28;20041;-55
2022/09/01 07:34:45;;;;;;;20.42;4.72;;;;;;;29.57;52.11;98213.16;4971919;28;20038;-53
2022/09/01 07:37:12;;;;;;;15.65;4.10;;;;;;;30.75;49.38;98217.13;4973598;28;20049;-53
2022/09/01 07:39:42;;;;;;;14.70;3.95;;;;;;;29.23;53.61;98216.22;4973435;28;20038;-53
2022/09/01 07:42:09;;;;;;;16.17;4.30;;;;;;;28.97;55.14;98211.16;4970720;28;20412;-54
2022/09/01 07:44:37;;;;;;;19.55;4.32;;;;;;;30.85;49.70;98216.84;4976436;28;20030;-53
2022/09/01 07:47:07;;;;;;;21.25;4.85;;;;;;;27.66;54.84;98214.84;4970049;28;20188;-53
2022/09/01 07:49:32;;;;;;;11.60;3.67;;;;;;;31.63;48.68;98219.84;4971624;28;20037;-53
2022/09/01 07:52:00;;;;;;;23.67;5.00;;;;;;;30.07;51.79;98219.00;4971516;28;20031;-53
2022/09/01 07:54:26;;;;;;;15.25;4.10;;;;;;;32.98;43.78;98217.94;4971236;28;20053;-53
2022/09/01 07:56:54;;;;;;;23.73;4.70;;;;;;;32.63;43.39;98214.44;4968980;28;20037;-56
2022/09/01 07:59:20;;;;;;;18.42;4.38;;;;;;;33.31;41.65;98216.41;4973484;28;20030;-54
2022/09/01 08:01:46;;;;;;;16.00;4.05;;;;;;;32.21;44.65;98216.22;4974410;28;20065;-54
2022/09/01 08:04:12;;;;;;;20.27;4.82;;;;;;;29.61;49.89;98219.00;4971882;28;20566;-54
2022/09/01 08:06:38;;;;;;;17.52;4.22;;;;;;;32.51;41.38;98226.78;4972847;28;20567;-55
2022/09/01 08:09:06;;;;;;;16.35;4.18;;;;;;;32.62;41.09;98215.47;4970858;28;20038;-54
2022/09/01 08:11:31;;;;;;;14.15;3.63;;;;;;;34.99;38.53;98218.06;4971541;28;20520;-57
2022/09/01 08:13:58;;;;;;;17.13;4.10;;;;;;;33.68;39.62;98219.63;4971945;28;20093;-54
2022/09/01 08:16:28;;;;;;;16.88;4.10;;;;;;;31.86;42.75;98224.22;4970857;28;20065;-53
2022/09/01 08:18:55;;;;;;;15.73;3.80;;;;;;;35.28;37.30;98227.53;4972617;28;20799;-54
2022/09/01 08:21:22;;;;;;;19.20;4.32;;;;;;;34.74;38.38;98214.19;4970727;28;20041;-53
2022/09/01 08:23:50;;;;;;;16.13;3.92;;;;;;;33.78;39.12;98226.31;4971189;28;20557;-55
2022/09/01 08:26:17;;;;;;;16.33;4.18;;;;;;;35.33;36.43;98219.59;4968352;28;20077;-53
2022/09/01 08:28:43;;;;;;;15.35;3.83;;;;;;;35.84;36.42;98224.09;4985888;28;20463;-54
2022/09/01 08:31:12;;;;;;;16.15;3.75;;;;;;;35.89;35.60;98223.41;4970314;28;20047;-53
2022/09/01 08:33:39;;;;;;;15.80;3.95;;;;;;;33.48;38.14;98233.91;4967708;28;20121;-53
2022/09/01 08:36:07;;;;;;;12.57;3.80;;;;;;;35.88;34.92;98232.63;4972272;28;20050;-54
2022/09/01 08:38:33;;;;;;;19.92;4.68;;;;;;;35.79;35.32;98229.34;4969074;28;20027;-53
2022/09/01 08:40:59;;;;;;;21.13;4.53;;;;;;;34.82;36.39;98229.38;4969455;28;20200;-54
2022/09/01 08:43:46;;;;;;;15.20;3.85;;;;;;;35.48;34.46;98233.69;4968359;28;20041;-53
2022/09/01 08:46:15;;;;;;;14.82;3.80;;;;;;;32.23;37.60;98238.44;4969490;28;20425;-53
2022/09/01 08:48:44;;;;;;;17.35;4.03;;;;;;;34.53;37.60;98230.66;4969971;28;20062;-53
2022/09/01 08:51:25;;;;;;;14.65;3.65;;;;;;;35.57;34.77;98234.25;4968454;28;20133;-53
2022/09/01 08:54:02;;;;;;;14.07;3.58;;;;;;;35.22;35.54;98231.09;4969305;28;20025;-53
2022/09/01 08:56:27;;;;;;;13.40;3.67;;;;;;;34.46;36.51;98227.94;4969699;28;20046;-53
2022/09/01 08:58:53;;;;;;;16.63;3.80;;;;;;;36.58;34.17;98227.00;4968896;28;20053;-53
2022/09/01 09:01:35;;;;;;;11.45;3.60;;;;;;;36.35;34.32;98226.81;4974610;28;20046;-55
2022/09/01 09:04:19;;;;;;;13.10;3.55;;;;;;;35.12;36.22;98228.81;4983123;28;20054;-53
2022/09/01 09:07:01;;;;;;;17.77;4.22;;;;;;;37.33;32.63;98234.09;4966521;28;20047;-52
2022/09/01 09:09:42;;;;;;;12.73;3.20;;;;;;;35.86;34.41;98235.53;4967769;28;20081;-53
2022/09/01 09:12:35;;;;;;;14.38;3.80;;;;;;;37.85;31.72;98241.72;4971375;28;20034;-54
2022/09/01 09:15:06;;;;;;;14.30;3.40;;;;;;;34.98;34.86;98233.50;4971174;28;20030;-53
2022/09/01 09:17:38;;;;;;;12.90;3.67;;;;;;;36.87;32.58;98234.63;4969468;28;20562;-56
2022/09/01 09:20:05;;;;;;;12.15;3.45;;;;;;;33.71;35.52;98249.81;4977747;28;20411;-54
2022/09/01 09:22:31;;;;;;;11.90;3.78;;;;;;;36.31;33.05;98236.47;4969300;28;20517;-53
2022/09/01 09:25:13;;;;;;;12.18;3.40;;;;;;;36.40;32.66;98229.69;4969862;28;20152;-53
2022/09/01 09:27:49;;;;;;;14.57;3.40;;;;;;;36.23;33.22;98237.56;4972805;28;20432;-54
2022/09/01 09:30:27;;;;;;;15.45;3.83;;;;;;;37.92;31.05;98225.25;4969386;28;20071;-53
2022/09/01 09:33:05;;;;;;;11.68;3.55;;;;;;;36.23;32.23;98227.53;4967380;28;20018;-53
2022/09/01 09:35:49;;;;;;;12.45;3.40;;;;;;;35.35;33.55;98217.50;4968242;28;20516;-54
2022/09/01 09:38:21;;;;;;;12.57;3.38;;;;;;;34.82;34.18;98223.13;4970565;28;20090;-54
2022/09/01 09:41:03;;;;;;;17.38;4.15;;;;;;;36.06;32.62;98229.09;4970122;28;20035;-53
2022/09/01 09:43:33;;;;;;;12.43;3.45;;;;;;;34.70;33.33;98231.91;4971144;28;20031;-54
2022/09/01 09:46:23;;;;;;;16.08;4.00;;;;;;;35.64;32.96;98220.63;4970105;28;20121;-53
2022/09/01 09:49:08;;;;;;;13.93;3.80;;;;;;;35.74;32.52;98221.00;4966089;28;20039;-52
2022/09/01 09:51:35;;;;;;;12.32;3.45;;;;;;;35.64;33.02;98223.34;4968697;28;20038;-52
2022/09/01 09:54:34;;;;;;;15.25;3.53;;;;;;;33.93;35.08;98217.13;4971849;28;20029;-52
2022/09/01 09:57:08;;;;;;;14.15;3.83;;;;;;;34.15;34.85;98206.94;4949567;28;20034;-52
2022/09/01 09:59:52;;;;;;;9.40;3.03;;;;;;;34.42;34.78;98209.66;4968252;28;20038;-53
2022/09/01 10:02:34;;;;;;;19.20;4.30;;;;;;;34.29;35.02;98207.78;4968500;28;20047;-53
2022/09/01 10:05:21;;;;;;;16.17;3.75;;;;;;;34.72;34.69;98210.84;4967725;28;20531;-56
2022/09/01 10:07:47;;;;;;;19.08;4.03;;;;;;;34.12;36.28;98210.91;4969023;28;20145;-53
2022/09/01 10:10:28;;;;;;;20.95;4.55;;;;;;;35.60;32.15;98203.13;4975402;28;20033;-53
2022/09/01 10:12:54;;;;;;;14.95;3.47;;;;;;;35.77;32.38;98204.31;4969802;28;20911;-53
2022/09/01 10:15:25;;;;;;;21.13;4.50;;;;;;;35.21;32.01;98205.03;4967482;28;20502;-55
2022/09/01 10:17:54;;;;;;;17.48;3.75;;;;;;;33.31;35.27;98194.78;4967259;28;20037;-54
2022/09/01 10:20:24;;;;;;;17.23;4.15;;;;;;;36.50;31.11;98191.13;4968034;28;20846;-56
2022/09/01 10:22:50;;;;;;;17.70;4.05;;;;;;;35.38;31.99;98200.75;4970740;28;20027;-56
2022/09/01 10:25:20;;;;;;;17.50;3.97;;;;;;;35.56;31.57;98196.50;4968749;28;20038;-55
2022/09/01 10:27:50;;;;;;;19.10;4.40;;;;;;;35.95;31.55;98191.84;4969609;28;20039;-54
2022/09/01 10:30:19;;;;;;;18.73;4.22;;;;;;;35.89;32.17;98197.09;4971635;28;20034;-53
2022/09/01 10:32:55;;;;;;;20.48;4.22;;;;;;;34.72;33.54;98189.19;4969035;28;20485;-53
2022/09/01 10:35:25;;;;;;;21.73;4.30;;;;;;;34.85;33.24;98184.75;4968351;28;20038;-52
2022/09/01 10:37:52;;;;;;;15.60;3.80;;;;;;;31.24;36.75;98204.06;4970681;28;20038;-53
2022/09/01 10:40:31;;;;;;;21.02;4.15;;;;;;;33.66;33.39;98191.97;4968604;28;20027;-53
2022/09/01 10:43:16;;;;;;;15.02;3.53;;;;;;;33.96;33.15;98186.97;4969403;28;20033;-53
2022/09/01 10:45:43;;;;;;;15.63;3.88;;;;;;;32.39;35.61;98178.75;4968372;28;20047;-52
2022/09/01 10:48:20;;;;;;;16.38;3.92;;;;;;;30.47;38.53;98181.94;4969041;28;20057;-53
2022/09/01 10:50:51;;;;;;;24.23;4.70;;;;;;;31.14;39.34;98177.44;4965820;28;20038;-52
2022/09/01 10:53:32;;;;;;;16.20;3.85;;;;;;;31.04;39.18;98176.91;4982350;28;20034;-54
2022/09/01 10:56:36;;;;;;;22.20;4.25;;;;;;;29.74;40.72;98178.09;4968938;28;20042;-56
2022/09/01 10:59:16;;;;;;;20.95;4.25;;;;;;;29.95;40.68;98183.63;4965213;28;20129;-53
2022/09/01 11:01:42;;;;;;;25.00;4.95;;;;;;;29.50;41.88;98179.09;4969450;28;20047;-54
2022/09/01 11:04:09;;;;;;;25.45;4.95;;;;;;;30.73;40.21;98177.94;4968866;28;20030;-54
2022/09/01 11:06:40;;;;;;;23.13;5.10;;;;;;;30.36;41.41;98180.56;4969501;28;20613;-54
2022/09/01 11:09:35;;;;;;;25.42;4.75;;;;;;;30.04;41.49;98184.41;4971322;28;20038;-54
2022/09/01 11:12:06;;;;;;;23.80;4.80;;;;;;;28.51;43.93;98195.69;4966733;28;20433;-54
2022/09/01 11:14:34;;;;;;;20.25;4.40;;;;;;;29.26;42.74;98194.38;4967339;28;20034;-54
2022/09/01 11:17:20;;;;;;;19.27;4.22;;;;;;;29.46;44.32;98185.84;4966583;28;20035;-54
2022/09/01 11:20:02;;;;;;;31.60;5.25;;;;;;;29.15;44.50;98192.09;4970426;28;20041;-54
2022/09/01 11:22:39;;;;;;;20.60;4.30;;;;;;;28.78;45.92;98190.91;4969877;28;20066;-53
2022/09/01 11:25:26;;;;;;;19.20;4.38;;;;;;;29.19;45.18;98188.06;4969521;28;20138;-53
2022/09/01 11:27:51;;;;;;;28.55;5.10;;;;;;;28.77;44.72;98181.19;4968974;28;20165;-54
2022/09/01 11:30:53;;;;;;;29.40;5.30;;;;;;;28.35;43.64;98185.00;4968608;28;20051;-54
2022/09/01 11:33:33;;;;;;;28.60;4.88;;;;;;;28.70;43.77;98193.63;4950167;28;20042;-53
2022/09/01 11:36:04;;;;;;;31.30;5.93;;;;;;;28.02;45.69;98182.38;4970793;28;20050;-54
2022/09/01 11:38:41;;;;;;;;;;;;;;;28.92;45.50;98179.44;4973201;28;20038;-54
2022/09/01 11:41:06;;;;;;;32.75;5.80;;;;;;;29.12;45.15;98184.38;4971961;28;20410;-53